SAE45 MMMX-TXKF
Flight info
| Callsign | SAE45 |
|---|---|
| Flight time | N/A |
| Altitude | 33000 |
| Route | NOXOS2B NOXOS UT155 AVALI UM580 NUBEL UR522 AXOMU UM346 CANOA Y196 LULLS Y642 JITGO/N0486F350 Y642 GRATX/M082F350 M329 BALTN POPOP1 |
| Aircraft | MD11/H-SDE1E2E3FGHIJ2J3J4J5M1RWXY/LB1D1 |
Departure
| Time | 2026-05-04 01:13 |
|---|---|
| Airport | Mexico City Benito Juárez International Airport (MMMX) |
Arrival
| Time | N/A |
|---|---|
| Airport | L.F. Wade International Airport (TXKF) |
| Time | Latitude | Longitude | Altitude | Speed | Heading |
|---|---|---|---|---|---|
| 2026-05-04 00:40 | 19.44377 | -99.06774 | 7310 ft | 0 kts | 61° |
| 2026-05-04 00:55 | 19.44370 | -99.06786 | 7310 ft | 4 kts | 59° |
| 2026-05-04 00:55 | 19.44356 | -99.06810 | 7310 ft | 4 kts | 55° |
| 2026-05-04 00:56 | 19.44346 | -99.06824 | 7311 ft | 0 kts | 56° |
| 2026-05-04 01:00 | 19.44346 | -99.06818 | 7310 ft | 1 kts | 81° |
| 2026-05-04 01:00 | 19.44341 | -99.06809 | 7310 ft | 1 kts | 126° |
| 2026-05-04 01:00 | 19.44319 | -99.06798 | 7310 ft | 8 kts | 151° |
| 2026-05-04 01:01 | 19.44242 | -99.06757 | 7311 ft | 13 kts | 154° |
| 2026-05-04 01:01 | 19.44209 | -99.06749 | 7311 ft | 4 kts | 181° |
| 2026-05-04 01:01 | 19.44183 | -99.06763 | 7311 ft | 7 kts | 213° |
| 2026-05-04 01:01 | 19.44149 | -99.06808 | 7311 ft | 12 kts | 237° |
| 2026-05-04 01:02 | 19.44089 | -99.06912 | 7311 ft | 17 kts | 239° |
| 2026-05-04 01:02 | 19.44018 | -99.07040 | 7311 ft | 23 kts | 239° |
| 2026-05-04 01:02 | 19.43943 | -99.07176 | 7311 ft | 23 kts | 239° |
| 2026-05-04 01:02 | 19.43891 | -99.07268 | 7310 ft | 14 kts | 239° |
| 2026-05-04 01:03 | 19.43834 | -99.07370 | 7310 ft | 19 kts | 239° |
| 2026-05-04 01:03 | 19.43769 | -99.07484 | 7309 ft | 20 kts | 238° |
| 2026-05-04 01:03 | 19.43701 | -99.07604 | 7309 ft | 20 kts | 239° |
| 2026-05-04 01:03 | 19.43650 | -99.07695 | 7310 ft | 8 kts | 239° |
| 2026-05-04 01:04 | 19.43611 | -99.07763 | 7310 ft | 13 kts | 239° |
| 2026-05-04 01:04 | 19.43556 | -99.07862 | 7310 ft | 18 kts | 239° |
| 2026-05-04 01:04 | 19.43489 | -99.07980 | 7310 ft | 11 kts | 239° |
| 2026-05-04 01:04 | 19.43442 | -99.08063 | 7310 ft | 16 kts | 239° |
| 2026-05-04 01:05 | 19.43378 | -99.08176 | 7310 ft | 20 kts | 239° |
| 2026-05-04 01:05 | 19.43317 | -99.08285 | 7309 ft | 15 kts | 239° |
| 2026-05-04 01:05 | 19.43257 | -99.08392 | 7309 ft | 19 kts | 239° |
| 2026-05-04 01:05 | 19.43194 | -99.08503 | 7308 ft | 17 kts | 239° |
| 2026-05-04 01:06 | 19.43126 | -99.08624 | 7308 ft | 21 kts | 239° |
| 2026-05-04 01:06 | 19.43047 | -99.08766 | 7308 ft | 24 kts | 239° |
| 2026-05-04 01:06 | 19.42980 | -99.08886 | 7308 ft | 16 kts | 239° |
| 2026-05-04 01:06 | 19.42928 | -99.08978 | 7308 ft | 7 kts | 239° |
| 2026-05-04 01:07 | 19.42900 | -99.09016 | 7308 ft | 7 kts | 226° |
| 2026-05-04 01:07 | 19.42882 | -99.09031 | 7308 ft | 0 kts | 216° |
| 2026-05-04 01:07 | 19.42875 | -99.09036 | 7308 ft | 3 kts | 215° |
| 2026-05-04 01:07 | 19.42866 | -99.09042 | 7308 ft | 0 kts | 210° |
| 2026-05-04 01:08 | 19.42842 | -99.09057 | 7308 ft | 8 kts | 210° |
| 2026-05-04 01:08 | 19.42813 | -99.09073 | 7308 ft | 4 kts | 206° |
| 2026-05-04 01:09 | 19.42783 | -99.09074 | 7309 ft | 4 kts | 170° |
| 2026-05-04 01:09 | 19.42772 | -99.09070 | 7309 ft | 1 kts | 153° |
| 2026-05-04 01:09 | 19.42769 | -99.09060 | 7309 ft | 3 kts | 114° |
| 2026-05-04 01:09 | 19.42769 | -99.09032 | 7309 ft | 4 kts | 75° |
| 2026-05-04 01:10 | 19.42773 | -99.09025 | 7309 ft | 0 kts | 62° |
| 2026-05-04 01:12 | 19.42783 | -99.09004 | 7309 ft | 11 kts | 60° |
| 2026-05-04 01:12 | 19.42907 | -99.08780 | 7309 ft | 65 kts | 59° |
| 2026-05-04 01:12 | 19.43244 | -99.08192 | 7310 ft | 120 kts | 59° |
| 2026-05-04 01:13 | 19.43755 | -99.07281 | 7311 ft | 166 kts | 59° |
| 2026-05-04 01:13 | 19.44419 | -99.06129 | 7342 ft | 194 kts | 56° |
| 2026-05-04 01:13 | 19.45098 | -99.04904 | 7851 ft | 199 kts | 59° |
| 2026-05-04 01:13 | 19.45818 | -99.03565 | 8141 ft | 217 kts | 59° |
| 2026-05-04 01:14 | 19.46610 | -99.02151 | 8626 ft | 229 kts | 59° |
| 2026-05-04 01:14 | 19.47438 | -99.00697 | 9183 ft | 233 kts | 58° |
| 2026-05-04 01:14 | 19.48289 | -98.99217 | 9445 ft | 236 kts | 58° |
| 2026-05-04 01:14 | 19.49145 | -98.97725 | 9643 ft | 238 kts | 60° |
| 2026-05-04 01:15 | 19.49985 | -98.96215 | 9897 ft | 239 kts | 60° |
| 2026-05-04 01:15 | 19.50830 | -98.94686 | 10164 ft | 242 kts | 61° |
| 2026-05-04 01:15 | 19.51683 | -98.93142 | 10394 ft | 247 kts | 60° |
| 2026-05-04 01:15 | 19.52566 | -98.91549 | 10499 ft | 254 kts | 61° |
| 2026-05-04 01:16 | 19.53329 | -98.89842 | 10608 ft | 259 kts | 72° |
| 2026-05-04 01:16 | 19.53878 | -98.88008 | 10702 ft | 264 kts | 75° |
| 2026-05-04 01:16 | 19.54382 | -98.86119 | 10789 ft | 268 kts | 76° |
| 2026-05-04 01:16 | 19.54881 | -98.84204 | 10897 ft | 271 kts | 76° |
| 2026-05-04 01:17 | 19.55385 | -98.82270 | 10980 ft | 274 kts | 76° |
| 2026-05-04 01:17 | 19.55894 | -98.80314 | 11078 ft | 277 kts | 76° |
| 2026-05-04 01:17 | 19.56408 | -98.78334 | 11184 ft | 282 kts | 76° |
| 2026-05-04 01:17 | 19.56936 | -98.76301 | 11285 ft | 290 kts | 76° |
| 2026-05-04 01:18 | 19.57477 | -98.74216 | 11378 ft | 297 kts | 76° |
| 2026-05-04 01:18 | 19.57971 | -98.72063 | 11483 ft | 304 kts | 78° |
| 2026-05-04 01:18 | 19.58387 | -98.69843 | 11593 ft | 310 kts | 81° |
| 2026-05-04 01:18 | 19.58786 | -98.67545 | 11714 ft | 325 kts | 81° |
| 2026-05-04 01:19 | 19.59201 | -98.65118 | 11841 ft | 344 kts | 80° |
| 2026-05-04 01:19 | 19.59641 | -98.62554 | 11984 ft | 362 kts | 81° |
| 2026-05-04 01:19 | 19.60104 | -98.59860 | 12123 ft | 380 kts | 80° |
| 2026-05-04 01:19 | 19.60584 | -98.57076 | 12622 ft | 386 kts | 79° |
| 2026-05-04 01:20 | 19.61069 | -98.54262 | 13205 ft | 390 kts | 79° |
| 2026-05-04 01:20 | 19.61480 | -98.51411 | 13799 ft | 393 kts | 85° |
| 2026-05-04 01:20 | 19.61598 | -98.48496 | 14325 ft | 397 kts | 89° |
| 2026-05-04 01:20 | 19.61559 | -98.45559 | 14846 ft | 400 kts | 91° |
| 2026-05-04 01:21 | 19.61465 | -98.42602 | 15385 ft | 403 kts | 92° |
| 2026-05-04 01:21 | 19.61360 | -98.39616 | 15892 ft | 406 kts | 92° |
| 2026-05-04 01:21 | 19.61257 | -98.36614 | 16423 ft | 409 kts | 92° |
| 2026-05-04 01:21 | 19.61161 | -98.33588 | 16930 ft | 413 kts | 91° |
| 2026-05-04 01:22 | 19.61071 | -98.30523 | 17351 ft | 418 kts | 91° |
| 2026-05-04 01:22 | 19.60986 | -98.27441 | 17885 ft | 419 kts | 91° |
| 2026-05-04 01:22 | 19.60901 | -98.24340 | 18396 ft | 420 kts | 90° |
| 2026-05-04 01:22 | 19.60818 | -98.21246 | 18922 ft | 421 kts | 90° |
| 2026-05-04 01:23 | 19.60734 | -98.18137 | 19358 ft | 423 kts | 90° |
| 2026-05-04 01:23 | 19.60651 | -98.15050 | 19753 ft | 426 kts | 90° |
| 2026-05-04 01:23 | 19.60565 | -98.11903 | 20159 ft | 428 kts | 90° |
| 2026-05-04 01:23 | 19.60478 | -98.08742 | 20568 ft | 431 kts | 90° |
| 2026-05-04 01:24 | 19.60391 | -98.05553 | 20969 ft | 433 kts | 90° |
| 2026-05-04 01:24 | 19.60446 | -98.02351 | 21364 ft | 435 kts | 83° |
| 2026-05-04 01:24 | 19.61053 | -97.99223 | 21774 ft | 434 kts | 70° |
| 2026-05-04 01:24 | 19.62191 | -97.96260 | 22146 ft | 435 kts | 62° |
| 2026-05-04 01:25 | 19.63556 | -97.93400 | 22475 ft | 439 kts | 59° |